sensor_id;sensor_type;location;lat;lon;timestamp;P1;durP1;ratioP1;P2;durP2;ratioP2
52434;SDS011;38354;52.892;6.148;2023-05-07T04:00:31;47.05;;;26.65;;
52434;SDS011;38354;52.892;6.148;2023-05-07T04:03:02;51.40;;;27.67;;
52434;SDS011;38354;52.892;6.148;2023-05-07T04:05:29;45.13;;;27.30;;
52434;SDS011;38354;52.892;6.148;2023-05-07T04:07:55;46.35;;;27.65;;
52434;SDS011;38354;52.892;6.148;2023-05-07T04:10:20;44.13;;;27.35;;
52434;SDS011;38354;52.892;6.148;2023-05-07T04:12:46;48.92;;;27.58;;
52434;SDS011;38354;52.892;6.148;2023-05-07T04:15:12;48.15;;;28.55;;
52434;SDS011;38354;52.892;6.148;2023-05-07T04:17:37;48.67;;;29.08;;
52434;SDS011;38354;52.892;6.148;2023-05-07T04:20:03;51.10;;;28.65;;
52434;SDS011;38354;52.892;6.148;2023-05-07T04:22:29;49.83;;;28.60;;
52434;SDS011;38354;52.892;6.148;2023-05-07T04:24:55;47.22;;;28.45;;
52434;SDS011;38354;52.892;6.148;2023-05-07T04:27:21;47.55;;;28.38;;
52434;SDS011;38354;52.892;6.148;2023-05-07T04:29:47;56.47;;;29.63;;
52434;SDS011;38354;52.892;6.148;2023-05-07T04:32:12;51.28;;;29.80;;
52434;SDS011;38354;52.892;6.148;2023-05-07T04:34:38;52.50;;;30.17;;
52434;SDS011;38354;52.892;6.148;2023-05-07T04:37:04;51.83;;;29.77;;
52434;SDS011;38354;52.892;6.148;2023-05-07T04:39:29;51.97;;;29.90;;
52434;SDS011;38354;52.892;6.148;2023-05-07T04:41:55;54.47;;;29.63;;
52434;SDS011;38354;52.892;6.148;2023-05-07T04:44:21;54.05;;;29.92;;
52434;SDS011;38354;52.892;6.148;2023-05-07T04:46:46;53.17;;;30.45;;
52434;SDS011;38354;52.892;6.148;2023-05-07T04:49:12;54.78;;;30.58;;
52434;SDS011;38354;52.892;6.148;2023-05-07T04:51:39;57.25;;;30.88;;
52434;SDS011;38354;52.892;6.148;2023-05-07T04:54:07;56.45;;;30.70;;
52434;SDS011;38354;52.892;6.148;2023-05-07T04:56:33;51.42;;;30.00;;
52434;SDS011;38354;52.892;6.148;2023-05-07T04:58:59;52.38;;;30.83;;
52434;SDS011;38354;52.892;6.148;2023-05-07T05:01:24;51.33;;;31.08;;
52434;SDS011;38354;52.892;6.148;2023-05-07T05:03:50;55.45;;;31.52;;
52434;SDS011;38354;52.892;6.148;2023-05-07T05:06:15;55.20;;;30.83;;
52434;SDS011;38354;52.892;6.148;2023-05-07T05:08:41;56.30;;;32.45;;
52434;SDS011;38354;52.892;6.148;2023-05-07T05:11:07;53.88;;;30.92;;
52434;SDS011;38354;52.892;6.148;2023-05-07T05:13:32;54.28;;;31.70;;
52434;SDS011;38354;52.892;6.148;2023-05-07T05:15:58;53.88;;;31.00;;
52434;SDS011;38354;52.892;6.148;2023-05-07T05:18:23;52.25;;;30.75;;
52434;SDS011;38354;52.892;6.148;2023-05-07T05:20:49;57.13;;;31.17;;
52434;SDS011;38354;52.892;6.148;2023-05-07T05:23:16;53.78;;;30.60;;
52434;SDS011;38354;52.892;6.148;2023-05-07T05:25:42;52.17;;;30.80;;
52434;SDS011;38354;52.892;6.148;2023-05-07T05:28:08;53.33;;;30.52;;
52434;SDS011;38354;52.892;6.148;2023-05-07T05:30:33;53.45;;;29.73;;
52434;SDS011;38354;52.892;6.148;2023-05-07T05:32:59;53.67;;;30.00;;
52434;SDS011;38354;52.892;6.148;2023-05-07T05:35:25;52.85;;;28.98;;
52434;SDS011;38354;52.892;6.148;2023-05-07T05:37:50;49.15;;;29.35;;
52434;SDS011;38354;52.892;6.148;2023-05-07T05:40:16;51.15;;;30.10;;
52434;SDS011;38354;52.892;6.148;2023-05-07T05:42:41;52.00;;;29.17;;
52434;SDS011;38354;52.892;6.148;2023-05-07T05:45:07;51.35;;;28.63;;
52434;SDS011;38354;52.892;6.148;2023-05-07T05:47:33;51.35;;;28.73;;
52434;SDS011;38354;52.892;6.148;2023-05-07T05:49:59;51.15;;;28.63;;
52434;SDS011;38354;52.892;6.148;2023-05-07T05:52:25;47.65;;;27.73;;
52434;SDS011;38354;52.892;6.148;2023-05-07T05:54:50;51.30;;;29.48;;
52434;SDS011;38354;52.892;6.148;2023-05-07T05:57:16;50.45;;;29.55;;
52434;SDS011;38354;52.892;6.148;2023-05-07T05:59:42;49.05;;;28.48;;
52434;SDS011;38354;52.892;6.148;2023-05-07T06:02:07;52.95;;;29.33;;
52434;SDS011;38354;52.892;6.148;2023-05-07T06:04:33;47.00;;;27.48;;
52434;SDS011;38354;52.892;6.148;2023-05-07T06:06:59;48.17;;;29.27;;
52434;SDS011;38354;52.892;6.148;2023-05-07T06:09:24;45.20;;;27.65;;
52434;SDS011;38354;52.892;6.148;2023-05-07T06:11:50;49.40;;;28.00;;
52434;SDS011;38354;52.892;6.148;2023-05-07T06:14:16;49.85;;;26.52;;
52434;SDS011;38354;52.892;6.148;2023-05-07T06:16:41;50.72;;;26.95;;
52434;SDS011;38354;52.892;6.148;2023-05-07T06:19:07;48.00;;;27.35;;
52434;SDS011;38354;52.892;6.148;2023-05-07T06:21:33;46.47;;;26.58;;
52434;SDS011;38354;52.892;6.148;2023-05-07T06:23:58;45.60;;;27.23;;
52434;SDS011;38354;52.892;6.148;2023-05-07T06:26:24;43.60;;;25.67;;
52434;SDS011;38354;52.892;6.148;2023-05-07T06:28:50;46.58;;;28.25;;
52434;SDS011;38354;52.892;6.148;2023-05-07T06:31:17;44.13;;;25.45;;
52434;SDS011;38354;52.892;6.148;2023-05-07T06:33:47;43.42;;;25.38;;
52434;SDS011;38354;52.892;6.148;2023-05-07T06:36:14;44.92;;;24.35;;
52434;SDS011;38354;52.892;6.148;2023-05-07T06:38:40;44.38;;;25.90;;
52434;SDS011;38354;52.892;6.148;2023-05-07T06:41:06;43.45;;;26.42;;
52434;SDS011;38354;52.892;6.148;2023-05-07T06:43:32;41.20;;;25.73;;
52434;SDS011;38354;52.892;6.148;2023-05-07T06:45:57;41.50;;;25.80;;
52434;SDS011;38354;52.892;6.148;2023-05-07T06:48:23;41.58;;;25.10;;
52434;SDS011;38354;52.892;6.148;2023-05-07T06:50:49;42.13;;;25.63;;
52434;SDS011;38354;52.892;6.148;2023-05-07T06:53:15;43.67;;;25.95;;
52434;SDS011;38354;52.892;6.148;2023-05-07T06:55:40;40.42;;;25.27;;
52434;SDS011;38354;52.892;6.148;2023-05-07T06:58:06;41.45;;;25.73;;
52434;SDS011;38354;52.892;6.148;2023-05-07T07:00:32;40.10;;;25.05;;
52434;SDS011;38354;52.892;6.148;2023-05-07T07:02:58;38.92;;;23.90;;
52434;SDS011;38354;52.892;6.148;2023-05-07T07:05:25;39.80;;;24.83;;
52434;SDS011;38354;52.892;6.148;2023-05-07T07:07:51;36.35;;;23.45;;
52434;SDS011;38354;52.892;6.148;2023-05-07T07:10:19;40.65;;;24.98;;
52434;SDS011;38354;52.892;6.148;2023-05-07T07:12:45;37.75;;;22.85;;
52434;SDS011;38354;52.892;6.148;2023-05-07T07:15:11;35.83;;;22.77;;
52434;SDS011;38354;52.892;6.148;2023-05-07T07:17:38;38.25;;;24.88;;
52434;SDS011;38354;52.892;6.148;2023-05-07T07:20:04;37.92;;;22.20;;
52434;SDS011;38354;52.892;6.148;2023-05-07T07:22:30;34.42;;;22.70;;
52434;SDS011;38354;52.892;6.148;2023-05-07T07:24:55;37.88;;;23.40;;
52434;SDS011;38354;52.892;6.148;2023-05-07T07:27:21;38.72;;;23.60;;
52434;SDS011;38354;52.892;6.148;2023-05-07T07:29:47;35.20;;;22.77;;
52434;SDS011;38354;52.892;6.148;2023-05-07T07:32:12;38.05;;;24.90;;
52434;SDS011;38354;52.892;6.148;2023-05-07T07:34:38;36.08;;;23.40;;
52434;SDS011;38354;52.892;6.148;2023-05-07T07:37:04;36.92;;;22.95;;
52434;SDS011;38354;52.892;6.148;2023-05-07T07:39:34;37.22;;;23.92;;
52434;SDS011;38354;52.892;6.148;2023-05-07T07:42:00;36.83;;;23.35;;
52434;SDS011;38354;52.892;6.148;2023-05-07T07:44:25;37.53;;;23.23;;
52434;SDS011;38354;52.892;6.148;2023-05-07T07:46:52;37.75;;;23.20;;
52434;SDS011;38354;52.892;6.148;2023-05-07T07:49:18;35.25;;;23.60;;
52434;SDS011;38354;52.892;6.148;2023-05-07T07:51:46;35.03;;;22.58;;
52434;SDS011;38354;52.892;6.148;2023-05-07T07:54:12;32.65;;;22.92;;
52434;SDS011;38354;52.892;6.148;2023-05-07T07:56:38;35.63;;;22.95;;
52434;SDS011;38354;52.892;6.148;2023-05-07T07:59:03;32.75;;;21.52;;
52434;SDS011;38354;52.892;6.148;2023-05-07T08:01:33;34.90;;;23.70;;
52434;SDS011;38354;52.892;6.148;2023-05-07T08:03:58;34.65;;;23.27;;
52434;SDS011;38354;52.892;6.148;2023-05-07T08:06:24;40.13;;;24.92;;
52434;SDS011;38354;52.892;6.148;2023-05-07T08:08:51;36.90;;;24.00;;
52434;SDS011;38354;52.892;6.148;2023-05-07T08:11:16;34.63;;;22.50;;
52434;SDS011;38354;52.892;6.148;2023-05-07T08:13:42;34.97;;;22.80;;
52434;SDS011;38354;52.892;6.148;2023-05-07T08:16:08;36.92;;;23.75;;
52434;SDS011;38354;52.892;6.148;2023-05-07T08:18:34;38.92;;;23.50;;
52434;SDS011;38354;52.892;6.148;2023-05-07T08:21:00;35.20;;;24.60;;
52434;SDS011;38354;52.892;6.148;2023-05-07T08:23:26;33.28;;;22.23;;
52434;SDS011;38354;52.892;6.148;2023-05-07T08:25:52;33.25;;;22.83;;
52434;SDS011;38354;52.892;6.148;2023-05-07T08:28:18;38.08;;;23.50;;
52434;SDS011;38354;52.892;6.148;2023-05-07T08:30:44;37.53;;;24.35;;
52434;SDS011;38354;52.892;6.148;2023-05-07T08:33:10;35.75;;;23.88;;
52434;SDS011;38354;52.892;6.148;2023-05-07T08:35:36;37.70;;;23.90;;
52434;SDS011;38354;52.892;6.148;2023-05-07T08:38:02;37.90;;;24.05;;
52434;SDS011;38354;52.892;6.148;2023-05-07T08:40:27;36.63;;;23.48;;
52434;SDS011;38354;52.892;6.148;2023-05-07T08:42:54;34.42;;;23.52;;
52434;SDS011;38354;52.892;6.148;2023-05-07T08:45:21;36.00;;;23.63;;
52434;SDS011;38354;52.892;6.148;2023-05-07T08:47:50;36.33;;;24.08;;
52434;SDS011;38354;52.892;6.148;2023-05-07T08:50:20;33.22;;;22.50;;
52434;SDS011;38354;52.892;6.148;2023-05-07T08:52:46;36.17;;;23.38;;
52434;SDS011;38354;52.892;6.148;2023-05-07T08:55:13;35.13;;;22.55;;
52434;SDS011;38354;52.892;6.148;2023-05-07T08:57:39;36.80;;;23.38;;
52434;SDS011;38354;52.892;6.148;2023-05-07T09:00:05;33.85;;;22.60;;
52434;SDS011;38354;52.892;6.148;2023-05-07T09:02:32;36.78;;;24.42;;
52434;SDS011;38354;52.892;6.148;2023-05-07T09:04:58;33.55;;;22.92;;
52434;SDS011;38354;52.892;6.148;2023-05-07T09:07:24;31.17;;;21.95;;
52434;SDS011;38354;52.892;6.148;2023-05-07T09:09:51;33.47;;;21.92;;
52434;SDS011;38354;52.892;6.148;2023-05-07T09:12:17;36.40;;;23.67;;
52434;SDS011;38354;52.892;6.148;2023-05-07T09:14:43;36.67;;;23.55;;
52434;SDS011;38354;52.892;6.148;2023-05-07T09:17:10;34.33;;;22.92;;
52434;SDS011;38354;52.892;6.148;2023-05-07T09:19:36;34.55;;;23.83;;
52434;SDS011;38354;52.892;6.148;2023-05-07T09:22:02;32.22;;;22.92;;
52434;SDS011;38354;52.892;6.148;2023-05-07T09:24:29;40.28;;;24.08;;
52434;SDS011;38354;52.892;6.148;2023-05-07T09:26:59;33.33;;;22.10;;
52434;SDS011;38354;52.892;6.148;2023-05-07T09:29:26;35.47;;;23.63;;
52434;SDS011;38354;52.892;6.148;2023-05-07T09:31:54;36.20;;;23.92;;
52434;SDS011;38354;52.892;6.148;2023-05-07T09:34:20;38.20;;;23.83;;
52434;SDS011;38354;52.892;6.148;2023-05-07T09:36:46;37.83;;;23.73;;
52434;SDS011;38354;52.892;6.148;2023-05-07T09:39:12;35.95;;;24.35;;
52434;SDS011;38354;52.892;6.148;2023-05-07T09:41:44;33.60;;;22.50;;
52434;SDS011;38354;52.892;6.148;2023-05-07T09:44:14;36.88;;;24.92;;
52434;SDS011;38354;52.892;6.148;2023-05-07T09:46:41;35.75;;;24.35;;
52434;SDS011;38354;52.892;6.148;2023-05-07T09:49:11;34.33;;;23.20;;
52434;SDS011;38354;52.892;6.148;2023-05-07T09:51:45;34.72;;;24.33;;
52434;SDS011;38354;52.892;6.148;2023-05-07T09:54:15;36.15;;;23.05;;
52434;SDS011;38354;52.892;6.148;2023-05-07T09:56:41;32.20;;;22.35;;
52434;SDS011;38354;52.892;6.148;2023-05-07T09:59:15;32.75;;;22.05;;
52434;SDS011;38354;52.892;6.148;2023-05-07T10:01:42;32.78;;;23.23;;
52434;SDS011;38354;52.892;6.148;2023-05-07T10:04:08;33.65;;;22.75;;
52434;SDS011;38354;52.892;6.148;2023-05-07T10:06:36;30.20;;;22.10;;
52434;SDS011;38354;52.892;6.148;2023-05-07T10:09:03;32.03;;;21.88;;
52434;SDS011;38354;52.892;6.148;2023-05-07T10:11:33;32.08;;;22.35;;
52434;SDS011;38354;52.892;6.148;2023-05-07T10:14:00;30.92;;;21.42;;
52434;SDS011;38354;52.892;6.148;2023-05-07T10:16:35;31.60;;;22.40;;
52434;SDS011;38354;52.892;6.148;2023-05-07T10:19:06;32.88;;;21.75;;
52434;SDS011;38354;52.892;6.148;2023-05-07T10:21:36;31.88;;;22.17;;
52434;SDS011;38354;52.892;6.148;2023-05-07T10:24:06;30.33;;;22.33;;
52434;SDS011;38354;52.892;6.148;2023-05-07T10:26:39;33.45;;;21.95;;
52434;SDS011;38354;52.892;6.148;2023-05-07T10:29:31;29.55;;;21.30;;
52434;SDS011;38354;52.892;6.148;2023-05-07T10:32:20;30.13;;;21.25;;
52434;SDS011;38354;52.892;6.148;2023-05-07T10:37:20;29.40;;;20.98;;
52434;SDS011;38354;52.892;6.148;2023-05-07T10:39:46;31.05;;;21.80;;
52434;SDS011;38354;52.892;6.148;2023-05-07T10:42:12;32.45;;;22.83;;
52434;SDS011;38354;52.892;6.148;2023-05-07T10:44:39;30.63;;;21.25;;
52434;SDS011;38354;52.892;6.148;2023-05-07T10:47:15;31.10;;;20.58;;
52434;SDS011;38354;52.892;6.148;2023-05-07T10:52:13;27.80;;;20.33;;
52434;SDS011;38354;52.892;6.148;2023-05-07T10:54:41;34.03;;;20.48;;
52434;SDS011;38354;52.892;6.148;2023-05-07T11:00:01;33.15;;;21.73;;
52434;SDS011;38354;52.892;6.148;2023-05-07T11:05:42;29.00;;;19.03;;
52434;SDS011;38354;52.892;6.148;2023-05-07T11:08:08;29.98;;;21.20;;
52434;SDS011;38354;52.892;6.148;2023-05-07T11:10:47;46.90;;;21.33;;
52434;SDS011;38354;52.892;6.148;2023-05-07T11:16:19;29.88;;;21.25;;
52434;SDS011;38354;52.892;6.148;2023-05-07T11:18:50;29.35;;;21.10;;
52434;SDS011;38354;52.892;6.148;2023-05-07T11:24:05;27.42;;;20.05;;
52434;SDS011;38354;52.892;6.148;2023-05-07T11:26:42;27.63;;;19.65;;
52434;SDS011;38354;52.892;6.148;2023-05-07T11:29:13;32.72;;;20.73;;
52434;SDS011;38354;52.892;6.148;2023-05-07T11:31:43;30.95;;;21.38;;
52434;SDS011;38354;52.892;6.148;2023-05-07T11:34:13;23.70;;;18.70;;
52434;SDS011;38354;52.892;6.148;2023-05-07T11:36:41;29.92;;;21.13;;
52434;SDS011;38354;52.892;6.148;2023-05-07T11:42:29;26.45;;;18.75;;
52434;SDS011;38354;52.892;6.148;2023-05-07T11:44:56;27.90;;;19.38;;
52434;SDS011;38354;52.892;6.148;2023-05-07T11:47:22;24.40;;;18.33;;
52434;SDS011;38354;52.892;6.148;2023-05-07T11:49:53;23.90;;;17.77;;
52434;SDS011;38354;52.892;6.148;2023-05-07T11:52:21;25.55;;;18.30;;
52434;SDS011;38354;52.892;6.148;2023-05-07T11:54:54;26.20;;;18.25;;
52434;SDS011;38354;52.892;6.148;2023-05-07T11:57:24;25.27;;;18.63;;
52434;SDS011;38354;52.892;6.148;2023-05-07T11:59:54;25.70;;;17.92;;
52434;SDS011;38354;52.892;6.148;2023-05-07T12:02:23;24.40;;;17.85;;
52434;SDS011;38354;52.892;6.148;2023-05-07T12:04:50;26.02;;;19.27;;
52434;SDS011;38354;52.892;6.148;2023-05-07T12:07:16;24.23;;;17.95;;
52434;SDS011;38354;52.892;6.148;2023-05-07T12:09:43;25.60;;;18.30;;
52434;SDS011;38354;52.892;6.148;2023-05-07T12:12:10;25.65;;;17.13;;
52434;SDS011;38354;52.892;6.148;2023-05-07T12:14:39;22.38;;;17.02;;
52434;SDS011;38354;52.892;6.148;2023-05-07T12:17:05;26.80;;;17.17;;
52434;SDS011;38354;52.892;6.148;2023-05-07T12:19:32;24.48;;;17.30;;
52434;SDS011;38354;52.892;6.148;2023-05-07T12:21:59;21.88;;;16.73;;
52434;SDS011;38354;52.892;6.148;2023-05-07T12:24:27;25.83;;;16.60;;
52434;SDS011;38354;52.892;6.148;2023-05-07T12:26:53;21.45;;;15.70;;
52434;SDS011;38354;52.892;6.148;2023-05-07T12:29:22;20.08;;;15.32;;
52434;SDS011;38354;52.892;6.148;2023-05-07T12:31:49;19.67;;;15.10;;
52434;SDS011;38354;52.892;6.148;2023-05-07T12:34:16;21.67;;;15.90;;
52434;SDS011;38354;52.892;6.148;2023-05-07T12:36:42;21.15;;;15.23;;
52434;SDS011;38354;52.892;6.148;2023-05-07T12:39:08;21.13;;;16.27;;
52434;SDS011;38354;52.892;6.148;2023-05-07T12:41:54;21.83;;;16.23;;
52434;SDS011;38354;52.892;6.148;2023-05-07T12:44:24;22.10;;;15.55;;
52434;SDS011;38354;52.892;6.148;2023-05-07T12:46:53;20.95;;;15.77;;
52434;SDS011;38354;52.892;6.148;2023-05-07T12:49:19;21.38;;;15.63;;
52434;SDS011;38354;52.892;6.148;2023-05-07T12:51:46;21.58;;;15.32;;
52434;SDS011;38354;52.892;6.148;2023-05-07T12:54:13;21.20;;;15.13;;
52434;SDS011;38354;52.892;6.148;2023-05-07T12:56:39;20.75;;;15.35;;
52434;SDS011;38354;52.892;6.148;2023-05-07T12:59:05;21.85;;;16.55;;
52434;SDS011;38354;52.892;6.148;2023-05-07T13:01:30;21.75;;;15.80;;
52434;SDS011;38354;52.892;6.148;2023-05-07T13:04:02;19.50;;;15.60;;
52434;SDS011;38354;52.892;6.148;2023-05-07T13:06:29;22.23;;;15.02;;
52434;SDS011;38354;52.892;6.148;2023-05-07T13:08:56;21.90;;;15.20;;
52434;SDS011;38354;52.892;6.148;2023-05-07T13:11:21;21.45;;;15.38;;
52434;SDS011;38354;52.892;6.148;2023-05-07T13:13:48;19.75;;;15.27;;
52434;SDS011;38354;52.892;6.148;2023-05-07T13:16:13;18.38;;;14.82;;
52434;SDS011;38354;52.892;6.148;2023-05-07T13:18:39;19.60;;;14.38;;
52434;SDS011;38354;52.892;6.148;2023-05-07T13:21:05;17.58;;;12.98;;
52434;SDS011;38354;52.892;6.148;2023-05-07T13:23:31;18.90;;;12.77;;
52434;SDS011;38354;52.892;6.148;2023-05-07T13:25:57;16.85;;;12.63;;
52434;SDS011;38354;52.892;6.148;2023-05-07T13:28:23;16.77;;;11.93;;
52434;SDS011;38354;52.892;6.148;2023-05-07T13:30:49;16.88;;;12.10;;
52434;SDS011;38354;52.892;6.148;2023-05-07T13:33:17;15.95;;;12.48;;
52434;SDS011;38354;52.892;6.148;2023-05-07T13:35:43;18.25;;;12.80;;
52434;SDS011;38354;52.892;6.148;2023-05-07T13:38:09;20.75;;;13.35;;
52434;SDS011;38354;52.892;6.148;2023-05-07T13:40:35;20.25;;;13.75;;
52434;SDS011;38354;52.892;6.148;2023-05-07T13:43:00;17.20;;;13.57;;
52434;SDS011;38354;52.892;6.148;2023-05-07T13:45:29;19.80;;;14.70;;
52434;SDS011;38354;52.892;6.148;2023-05-07T13:47:55;18.38;;;13.30;;
52434;SDS011;38354;52.892;6.148;2023-05-07T13:50:22;16.48;;;13.13;;
52434;SDS011;38354;52.892;6.148;2023-05-07T13:52:47;17.08;;;12.88;;
52434;SDS011;38354;52.892;6.148;2023-05-07T13:55:20;17.40;;;13.05;;
52434;SDS011;38354;52.892;6.148;2023-05-07T13:57:46;16.08;;;12.52;;
52434;SDS011;38354;52.892;6.148;2023-05-07T14:00:13;15.15;;;12.45;;
52434;SDS011;38354;52.892;6.148;2023-05-07T14:02:39;15.18;;;11.73;;
52434;SDS011;38354;52.892;6.148;2023-05-07T14:05:05;16.85;;;11.82;;
52434;SDS011;38354;52.892;6.148;2023-05-07T14:07:32;16.25;;;12.05;;
52434;SDS011;38354;52.892;6.148;2023-05-07T14:09:57;16.45;;;11.93;;
52434;SDS011;38354;52.892;6.148;2023-05-07T14:12:23;16.92;;;12.90;;
52434;SDS011;38354;52.892;6.148;2023-05-07T14:14:49;15.77;;;12.57;;
52434;SDS011;38354;52.892;6.148;2023-05-07T14:17:16;20.17;;;13.70;;
52434;SDS011;38354;52.892;6.148;2023-05-07T14:19:42;18.17;;;13.05;;
52434;SDS011;38354;52.892;6.148;2023-05-07T14:22:08;16.63;;;13.38;;
52434;SDS011;38354;52.892;6.148;2023-05-07T14:24:34;16.88;;;14.23;;
52434;SDS011;38354;52.892;6.148;2023-05-07T14:27:00;16.73;;;13.27;;
52434;SDS011;38354;52.892;6.148;2023-05-07T14:29:25;16.85;;;13.52;;
52434;SDS011;38354;52.892;6.148;2023-05-07T14:31:51;14.07;;;11.48;;
52434;SDS011;38354;52.892;6.148;2023-05-07T14:34:17;16.23;;;12.57;;
52434;SDS011;38354;52.892;6.148;2023-05-07T14:36:42;16.85;;;12.35;;
52434;SDS011;38354;52.892;6.148;2023-05-07T14:39:09;16.95;;;13.57;;
52434;SDS011;38354;52.892;6.148;2023-05-07T14:41:34;18.73;;;13.38;;
52434;SDS011;38354;52.892;6.148;2023-05-07T14:44:00;16.30;;;12.68;;
52434;SDS011;38354;52.892;6.148;2023-05-07T14:46:26;14.10;;;11.27;;
52434;SDS011;38354;52.892;6.148;2023-05-07T14:48:52;16.25;;;11.82;;
52434;SDS011;38354;52.892;6.148;2023-05-07T14:51:18;13.32;;;10.75;;
52434;SDS011;38354;52.892;6.148;2023-05-07T14:53:43;13.60;;;9.88;;
52434;SDS011;38354;52.892;6.148;2023-05-07T14:56:09;14.27;;;10.95;;
52434;SDS011;38354;52.892;6.148;2023-05-07T14:58:35;13.70;;;9.38;;
52434;SDS011;38354;52.892;6.148;2023-05-07T15:01:02;12.80;;;9.80;;
52434;SDS011;38354;52.892;6.148;2023-05-07T15:03:28;14.52;;;9.93;;
52434;SDS011;38354;52.892;6.148;2023-05-07T15:05:54;11.45;;;8.85;;
52434;SDS011;38354;52.892;6.148;2023-05-07T15:08:20;12.77;;;9.95;;
52434;SDS011;38354;52.892;6.148;2023-05-07T15:10:45;15.15;;;11.25;;
52434;SDS011;38354;52.892;6.148;2023-05-07T15:13:11;16.10;;;12.05;;
52434;SDS011;38354;52.892;6.148;2023-05-07T15:15:40;15.02;;;12.38;;
52434;SDS011;38354;52.892;6.148;2023-05-07T15:18:07;18.25;;;12.15;;
52434;SDS011;38354;52.892;6.148;2023-05-07T15:20:33;15.65;;;11.57;;
52434;SDS011;38354;52.892;6.148;2023-05-07T15:22:58;17.63;;;12.70;;
52434;SDS011;38354;52.892;6.148;2023-05-07T15:25:24;16.83;;;12.88;;
52434;SDS011;38354;52.892;6.148;2023-05-07T15:27:50;16.42;;;13.30;;
52434;SDS011;38354;52.892;6.148;2023-05-07T15:30:17;16.10;;;12.80;;
52434;SDS011;38354;52.892;6.148;2023-05-07T15:32:45;17.60;;;12.48;;
52434;SDS011;38354;52.892;6.148;2023-05-07T15:35:10;14.05;;;11.85;;
52434;SDS011;38354;52.892;6.148;2023-05-07T15:37:36;14.95;;;11.32;;
52434;SDS011;38354;52.892;6.148;2023-05-07T15:40:02;13.73;;;11.25;;
52434;SDS011;38354;52.892;6.148;2023-05-07T15:42:30;13.70;;;10.85;;
52434;SDS011;38354;52.892;6.148;2023-05-07T15:44:55;14.38;;;11.07;;
52434;SDS011;38354;52.892;6.148;2023-05-07T15:47:21;12.10;;;9.80;;
52434;SDS011;38354;52.892;6.148;2023-05-07T15:49:47;11.18;;;8.90;;
52434;SDS011;38354;52.892;6.148;2023-05-07T15:52:12;13.90;;;10.25;;
52434;SDS011;38354;52.892;6.148;2023-05-07T15:54:41;13.88;;;10.73;;
52434;SDS011;38354;52.892;6.148;2023-05-07T15:57:07;14.32;;;11.73;;
52434;SDS011;38354;52.892;6.148;2023-05-07T15:59:33;15.30;;;12.15;;
52434;SDS011;38354;52.892;6.148;2023-05-07T16:02:00;12.50;;;10.10;;
52434;SDS011;38354;52.892;6.148;2023-05-07T16:04:25;10.52;;;8.75;;
52434;SDS011;38354;52.892;6.148;2023-05-07T16:06:52;10.68;;;9.35;;
52434;SDS011;38354;52.892;6.148;2023-05-07T16:09:18;11.35;;;9.45;;
52434;SDS011;38354;52.892;6.148;2023-05-07T16:11:44;11.30;;;9.57;;
52434;SDS011;38354;52.892;6.148;2023-05-07T16:14:10;11.57;;;9.77;;
52434;SDS011;38354;52.892;6.148;2023-05-07T16:16:35;12.32;;;10.23;;
52434;SDS011;38354;52.892;6.148;2023-05-07T16:19:02;12.82;;;10.32;;
52434;SDS011;38354;52.892;6.148;2023-05-07T16:21:27;13.27;;;10.75;;
52434;SDS011;38354;52.892;6.148;2023-05-07T16:23:54;12.80;;;10.82;;
52434;SDS011;38354;52.892;6.148;2023-05-07T16:26:21;12.88;;;9.90;;
52434;SDS011;38354;52.892;6.148;2023-05-07T16:28:46;10.82;;;9.23;;
52434;SDS011;38354;52.892;6.148;2023-05-07T16:31:12;10.77;;;9.57;;
52434;SDS011;38354;52.892;6.148;2023-05-07T16:33:38;12.68;;;10.50;;
52434;SDS011;38354;52.892;6.148;2023-05-07T16:36:05;11.65;;;10.05;;
52434;SDS011;38354;52.892;6.148;2023-05-07T16:38:31;12.95;;;9.30;;
52434;SDS011;38354;52.892;6.148;2023-05-07T16:40:58;12.73;;;9.30;;
52434;SDS011;38354;52.892;6.148;2023-05-07T16:43:24;13.75;;;10.40;;
52434;SDS011;38354;52.892;6.148;2023-05-07T16:45:49;15.95;;;9.68;;
52434;SDS011;38354;52.892;6.148;2023-05-07T16:48:16;12.38;;;9.45;;
52434;SDS011;38354;52.892;6.148;2023-05-07T16:50:42;10.60;;;9.15;;
52434;SDS011;38354;52.892;6.148;2023-05-07T16:53:08;9.80;;;8.30;;
52434;SDS011;38354;52.892;6.148;2023-05-07T16:55:37;10.50;;;9.10;;
52434;SDS011;38354;52.892;6.148;2023-05-07T16:58:07;10.57;;;8.90;;
52434;SDS011;38354;52.892;6.148;2023-05-07T17:00:34;10.88;;;8.80;;
52434;SDS011;38354;52.892;6.148;2023-05-07T17:03:01;12.68;;;9.10;;
52434;SDS011;38354;52.892;6.148;2023-05-07T17:05:27;11.88;;;8.88;;
52434;SDS011;38354;52.892;6.148;2023-05-07T17:07:54;15.57;;;10.50;;
52434;SDS011;38354;52.892;6.148;2023-05-07T17:10:21;11.80;;;9.75;;
52434;SDS011;38354;52.892;6.148;2023-05-07T17:12:47;14.82;;;11.52;;
52434;SDS011;38354;52.892;6.148;2023-05-07T17:15:12;13.23;;;10.75;;
52434;SDS011;38354;52.892;6.148;2023-05-07T17:17:38;12.13;;;10.57;;
52434;SDS011;38354;52.892;6.148;2023-05-07T17:20:05;13.05;;;10.40;;
52434;SDS011;38354;52.892;6.148;2023-05-07T17:22:31;14.68;;;10.30;;
52434;SDS011;38354;52.892;6.148;2023-05-07T17:24:57;13.68;;;11.05;;
52434;SDS011;38354;52.892;6.148;2023-05-07T17:27:23;12.73;;;10.57;;
52434;SDS011;38354;52.892;6.148;2023-05-07T17:29:49;13.02;;;10.48;;
52434;SDS011;38354;52.892;6.148;2023-05-07T17:32:15;13.07;;;10.82;;
52434;SDS011;38354;52.892;6.148;2023-05-07T17:34:41;14.95;;;11.60;;
52434;SDS011;38354;52.892;6.148;2023-05-07T17:37:06;15.57;;;11.65;;
52434;SDS011;38354;52.892;6.148;2023-05-07T17:39:32;14.25;;;11.00;;
52434;SDS011;38354;52.892;6.148;2023-05-07T17:41:58;14.13;;;11.32;;
52434;SDS011;38354;52.892;6.148;2023-05-07T17:44:24;14.52;;;10.32;;
52434;SDS011;38354;52.892;6.148;2023-05-07T17:46:49;12.38;;;10.30;;
52434;SDS011;38354;52.892;6.148;2023-05-07T17:49:15;15.20;;;10.90;;
52434;SDS011;38354;52.892;6.148;2023-05-07T17:51:41;15.52;;;10.85;;
52434;SDS011;38354;52.892;6.148;2023-05-07T17:54:07;13.77;;;10.65;;
52434;SDS011;38354;52.892;6.148;2023-05-07T17:56:33;12.60;;;10.18;;
52434;SDS011;38354;52.892;6.148;2023-05-07T17:58:58;12.75;;;10.70;;
52434;SDS011;38354;52.892;6.148;2023-05-07T18:01:24;12.93;;;10.35;;
52434;SDS011;38354;52.892;6.148;2023-05-07T18:03:50;15.88;;;10.90;;
52434;SDS011;38354;52.892;6.148;2023-05-07T18:06:15;11.93;;;10.30;;
52434;SDS011;38354;52.892;6.148;2023-05-07T18:08:45;14.13;;;10.55;;
52434;SDS011;38354;52.892;6.148;2023-05-07T18:11:12;13.68;;;10.32;;
52434;SDS011;38354;52.892;6.148;2023-05-07T18:13:37;13.52;;;10.98;;
52434;SDS011;38354;52.892;6.148;2023-05-07T18:16:04;13.65;;;10.98;;
52434;SDS011;38354;52.892;6.148;2023-05-07T18:18:30;14.07;;;11.75;;
52434;SDS011;38354;52.892;6.148;2023-05-07T18:20:56;13.65;;;11.73;;
52434;SDS011;38354;52.892;6.148;2023-05-07T18:23:23;14.02;;;11.85;;
52434;SDS011;38354;52.892;6.148;2023-05-07T18:25:48;14.50;;;12.05;;
52434;SDS011;38354;52.892;6.148;2023-05-07T18:28:14;15.57;;;12.80;;
52434;SDS011;38354;52.892;6.148;2023-05-07T18:30:40;17.38;;;13.25;;
52434;SDS011;38354;52.892;6.148;2023-05-07T18:33:06;16.35;;;13.02;;
52434;SDS011;38354;52.892;6.148;2023-05-07T18:35:32;18.45;;;13.82;;
52434;SDS011;38354;52.892;6.148;2023-05-07T18:37:57;18.45;;;13.32;;
52434;SDS011;38354;52.892;6.148;2023-05-07T18:40:23;19.05;;;13.27;;